sensor_id;sensor_type;location;lat;lon;timestamp;temperature;humidity
67249;SHT31;63247;54.300;18.592;2023-05-07T00:02:20;5.70;89.32
67249;SHT31;63247;54.300;18.592;2023-05-07T00:04:46;5.68;89.53
67249;SHT31;63247;54.300;18.592;2023-05-07T00:07:11;5.66;89.54
67249;SHT31;63247;54.300;18.592;2023-05-07T00:09:36;5.55;89.23
67249;SHT31;63247;54.300;18.592;2023-05-07T00:12:02;5.59;88.98
67249;SHT31;63247;54.300;18.592;2023-05-07T00:14:27;5.52;88.79
67249;SHT31;63247;54.300;18.592;2023-05-07T00:16:53;5.56;89.10
67249;SHT31;63247;54.300;18.592;2023-05-07T00:19:18;5.51;88.72
67249;SHT31;63247;54.300;18.592;2023-05-07T00:21:44;5.34;88.87
67249;SHT31;63247;54.300;18.592;2023-05-07T00:24:09;5.31;89.01
67249;SHT31;63247;54.300;18.592;2023-05-07T00:26:34;5.26;88.78
67249;SHT31;63247;54.300;18.592;2023-05-07T00:29:00;5.34;88.45
67249;SHT31;63247;54.300;18.592;2023-05-07T00:31:25;5.26;88.39
67249;SHT31;63247;54.300;18.592;2023-05-07T00:33:51;5.37;88.31
67249;SHT31;63247;54.300;18.592;2023-05-07T00:36:16;5.35;88.06
67249;SHT31;63247;54.300;18.592;2023-05-07T00:38:41;5.24;88.03
67249;SHT31;63247;54.300;18.592;2023-05-07T00:41:07;5.08;87.80
67249;SHT31;63247;54.300;18.592;2023-05-07T00:43:32;5.07;87.90
67249;SHT31;63247;54.300;18.592;2023-05-07T00:45:58;5.10;87.95
67249;SHT31;63247;54.300;18.592;2023-05-07T00:48:24;4.97;87.95
67249;SHT31;63247;54.300;18.592;2023-05-07T00:50:50;5.06;87.32
67249;SHT31;63247;54.300;18.592;2023-05-07T00:53:15;4.96;87.39
67249;SHT31;63247;54.300;18.592;2023-05-07T00:55:41;4.83;87.24
67249;SHT31;63247;54.300;18.592;2023-05-07T00:58:06;4.80;87.09
67249;SHT31;63247;54.300;18.592;2023-05-07T01:00:33;4.99;86.74
67249;SHT31;63247;54.300;18.592;2023-05-07T01:02:59;4.97;86.28
67249;SHT31;63247;54.300;18.592;2023-05-07T01:05:26;4.97;86.21
67249;SHT31;63247;54.300;18.592;2023-05-07T01:07:53;4.90;86.44
67249;SHT31;63247;54.300;18.592;2023-05-07T01:10:19;4.76;86.65
67249;SHT31;63247;54.300;18.592;2023-05-07T01:12:46;4.77;86.90
67249;SHT31;63247;54.300;18.592;2023-05-07T01:15:13;4.75;86.86
67249;SHT31;63247;54.300;18.592;2023-05-07T01:17:40;4.87;86.08
67249;SHT31;63247;54.300;18.592;2023-05-07T01:20:07;4.93;85.50
67249;SHT31;63247;54.300;18.592;2023-05-07T01:22:35;4.68;86.29
67249;SHT31;63247;54.300;18.592;2023-05-07T01:25:03;4.65;86.41
67249;SHT31;63247;54.300;18.592;2023-05-07T01:27:28;4.60;86.38
67249;SHT31;63247;54.300;18.592;2023-05-07T01:29:54;4.65;86.44
67249;SHT31;63247;54.300;18.592;2023-05-07T01:32:25;4.58;87.00
67249;SHT31;63247;54.300;18.592;2023-05-07T01:34:54;4.53;87.17
67249;SHT31;63247;54.300;18.592;2023-05-07T01:37:21;4.27;88.03
67249;SHT31;63247;54.300;18.592;2023-05-07T01:39:47;4.24;88.61
67249;SHT31;63247;54.300;18.592;2023-05-07T01:42:13;4.20;88.93
67249;SHT31;63247;54.300;18.592;2023-05-07T01:44:38;4.30;88.68
67249;SHT31;63247;54.300;18.592;2023-05-07T01:47:05;4.21;88.95
67249;SHT31;63247;54.300;18.592;2023-05-07T01:49:31;4.07;89.38
67249;SHT31;63247;54.300;18.592;2023-05-07T01:51:57;3.98;89.88
67249;SHT31;63247;54.300;18.592;2023-05-07T01:54:26;4.01;89.79
67249;SHT31;63247;54.300;18.592;2023-05-07T01:56:53;4.02;89.70
67249;SHT31;63247;54.300;18.592;2023-05-07T01:59:18;4.01;90.02
67249;SHT31;63247;54.300;18.592;2023-05-07T02:01:44;3.97;90.24
67249;SHT31;63247;54.300;18.592;2023-05-07T02:04:09;3.77;90.66
67249;SHT31;63247;54.300;18.592;2023-05-07T02:06:35;3.66;91.35
67249;SHT31;63247;54.300;18.592;2023-05-07T02:09:01;3.76;91.12
67249;SHT31;63247;54.300;18.592;2023-05-07T02:11:26;3.62;91.79
67249;SHT31;63247;54.300;18.592;2023-05-07T02:13:52;3.56;91.76
67249;SHT31;63247;54.300;18.592;2023-05-07T02:16:18;3.43;92.44
67249;SHT31;63247;54.300;18.592;2023-05-07T02:18:44;3.25;92.86
67249;SHT31;63247;54.300;18.592;2023-05-07T02:21:09;3.22;93.04
67249;SHT31;63247;54.300;18.592;2023-05-07T02:23:35;3.18;93.05
67249;SHT31;63247;54.300;18.592;2023-05-07T02:26:00;3.08;93.16
67249;SHT31;63247;54.300;18.592;2023-05-07T02:28:26;3.05;93.42
67249;SHT31;63247;54.300;18.592;2023-05-07T02:30:52;3.15;93.51
67249;SHT31;63247;54.300;18.592;2023-05-07T02:33:17;3.09;93.59
67249;SHT31;63247;54.300;18.592;2023-05-07T02:35:43;3.07;93.78
67249;SHT31;63247;54.300;18.592;2023-05-07T02:38:08;3.07;93.88
67249;SHT31;63247;54.300;18.592;2023-05-07T02:40:36;3.04;94.10
67249;SHT31;63247;54.300;18.592;2023-05-07T02:43:04;3.05;94.16
67249;SHT31;63247;54.300;18.592;2023-05-07T02:45:31;2.98;94.24
67249;SHT31;63247;54.300;18.592;2023-05-07T02:47:56;3.11;94.40
67249;SHT31;63247;54.300;18.592;2023-05-07T02:50:22;3.21;93.66
67249;SHT31;63247;54.300;18.592;2023-05-07T02:52:47;3.11;93.90
67249;SHT31;63247;54.300;18.592;2023-05-07T02:55:12;3.19;93.58
67249;SHT31;63247;54.300;18.592;2023-05-07T02:57:38;2.98;94.02
67249;SHT31;63247;54.300;18.592;2023-05-07T03:00:13;2.94;94.21
67249;SHT31;63247;54.300;18.592;2023-05-07T03:02:39;3.01;93.92
67249;SHT31;63247;54.300;18.592;2023-05-07T03:05:05;3.00;93.59
67249;SHT31;63247;54.300;18.592;2023-05-07T03:07:30;3.08;93.84
67249;SHT31;63247;54.300;18.592;2023-05-07T03:09:56;3.42;93.19
67249;SHT31;63247;54.300;18.592;2023-05-07T03:12:21;3.55;92.13
67249;SHT31;63247;54.300;18.592;2023-05-07T03:14:46;3.72;91.92
67249;SHT31;63247;54.300;18.592;2023-05-07T03:17:12;4.00;90.14
67249;SHT31;63247;54.300;18.592;2023-05-07T03:19:37;4.17;90.13
67249;SHT31;63247;54.300;18.592;2023-05-07T03:22:03;4.35;89.43
67249;SHT31;63247;54.300;18.592;2023-05-07T03:24:28;4.45;88.15
67249;SHT31;63247;54.300;18.592;2023-05-07T03:26:53;4.84;87.55
67249;SHT31;63247;54.300;18.592;2023-05-07T03:29:19;5.06;86.52
67249;SHT31;63247;54.300;18.592;2023-05-07T03:31:45;5.14;86.98
67249;SHT31;63247;54.300;18.592;2023-05-07T03:34:10;5.39;86.69
67249;SHT31;63247;54.300;18.592;2023-05-07T03:36:35;5.65;85.38
67249;SHT31;63247;54.300;18.592;2023-05-07T03:39:01;5.79;85.84
67249;SHT31;63247;54.300;18.592;2023-05-07T03:41:26;5.80;84.18
67249;SHT31;63247;54.300;18.592;2023-05-07T03:43:52;5.96;84.54
67249;SHT31;63247;54.300;18.592;2023-05-07T03:46:17;6.35;84.52
67249;SHT31;63247;54.300;18.592;2023-05-07T03:48:42;6.37;83.58
67249;SHT31;63247;54.300;18.592;2023-05-07T03:51:08;6.72;82.73
67249;SHT31;63247;54.300;18.592;2023-05-07T03:53:33;7.22;82.05
67249;SHT31;63247;54.300;18.592;2023-05-07T03:55:58;7.50;81.21
67249;SHT31;63247;54.300;18.592;2023-05-07T03:58:24;7.77;80.13
67249;SHT31;63247;54.300;18.592;2023-05-07T04:00:49;8.03;79.13
67249;SHT31;63247;54.300;18.592;2023-05-07T04:03:15;8.47;78.60
67249;SHT31;63247;54.300;18.592;2023-05-07T04:05:40;8.56;77.88
67249;SHT31;63247;54.300;18.592;2023-05-07T04:08:06;8.79;78.29
67249;SHT31;63247;54.300;18.592;2023-05-07T04:10:31;9.19;78.21
67249;SHT31;63247;54.300;18.592;2023-05-07T04:12:56;9.37;77.16
67249;SHT31;63247;54.300;18.592;2023-05-07T04:15:23;9.58;77.36
67249;SHT31;63247;54.300;18.592;2023-05-07T04:17:48;10.05;74.57
67249;SHT31;63247;54.300;18.592;2023-05-07T04:20:16;10.43;74.25
67249;SHT31;63247;54.300;18.592;2023-05-07T04:22:42;11.12;72.35
67249;SHT31;63247;54.300;18.592;2023-05-07T04:25:08;11.34;70.69
67249;SHT31;63247;54.300;18.592;2023-05-07T04:27:36;11.82;69.09
67249;SHT31;63247;54.300;18.592;2023-05-07T04:30:03;11.77;68.89
67249;SHT31;63247;54.300;18.592;2023-05-07T04:32:29;11.96;68.55
67249;SHT31;63247;54.300;18.592;2023-05-07T04:34:55;11.77;68.78
67249;SHT31;63247;54.300;18.592;2023-05-07T04:37:21;11.93;67.19
67249;SHT31;63247;54.300;18.592;2023-05-07T04:39:47;12.30;66.53
67249;SHT31;63247;54.300;18.592;2023-05-07T04:42:16;13.43;63.82
67249;SHT31;63247;54.300;18.592;2023-05-07T04:44:43;13.82;61.94
67249;SHT31;63247;54.300;18.592;2023-05-07T04:47:08;14.37;59.93
67249;SHT31;63247;54.300;18.592;2023-05-07T04:49:33;13.78;61.16
67249;SHT31;63247;54.300;18.592;2023-05-07T04:51:59;14.34;59.77
67249;SHT31;63247;54.300;18.592;2023-05-07T04:54:24;15.39;57.73
67249;SHT31;63247;54.300;18.592;2023-05-07T04:56:50;13.89;58.07
67249;SHT31;63247;54.300;18.592;2023-05-07T04:59:15;13.30;58.57
67249;SHT31;63247;54.300;18.592;2023-05-07T05:01:41;12.97;59.84
67249;SHT31;63247;54.300;18.592;2023-05-07T05:04:06;13.02;59.10
67249;SHT31;63247;54.300;18.592;2023-05-07T05:06:32;13.54;57.20
67249;SHT31;63247;54.300;18.592;2023-05-07T05:08:57;13.43;56.06
67249;SHT31;63247;54.300;18.592;2023-05-07T05:11:22;14.01;53.72
67249;SHT31;63247;54.300;18.592;2023-05-07T05:13:48;13.65;53.88
67249;SHT31;63247;54.300;18.592;2023-05-07T05:16:14;13.88;53.82
67249;SHT31;63247;54.300;18.592;2023-05-07T05:18:40;13.77;52.97
67249;SHT31;63247;54.300;18.592;2023-05-07T05:21:05;13.62;54.42
67249;SHT31;63247;54.300;18.592;2023-05-07T05:23:31;14.01;52.28
67249;SHT31;63247;54.300;18.592;2023-05-07T05:25:57;15.18;51.60
67249;SHT31;63247;54.300;18.592;2023-05-07T05:28:23;14.40;51.99
67249;SHT31;63247;54.300;18.592;2023-05-07T05:30:49;15.05;50.83
67249;SHT31;63247;54.300;18.592;2023-05-07T05:33:14;15.18;51.09
67249;SHT31;63247;54.300;18.592;2023-05-07T05:35:40;15.42;49.99
67249;SHT31;63247;54.300;18.592;2023-05-07T05:38:05;15.19;48.71
67249;SHT31;63247;54.300;18.592;2023-05-07T05:40:30;15.87;49.32
67249;SHT31;63247;54.300;18.592;2023-05-07T05:42:56;16.62;47.63
67249;SHT31;63247;54.300;18.592;2023-05-07T05:45:21;15.33;50.84
67249;SHT31;63247;54.300;18.592;2023-05-07T05:47:47;15.40;50.09
67249;SHT31;63247;54.300;18.592;2023-05-07T05:50:12;15.04;50.63
67249;SHT31;63247;54.300;18.592;2023-05-07T05:52:38;15.28;49.42
67249;SHT31;63247;54.300;18.592;2023-05-07T05:55:04;15.84;49.07
67249;SHT31;63247;54.300;18.592;2023-05-07T05:57:29;15.35;51.63
67249;SHT31;63247;54.300;18.592;2023-05-07T05:59:55;14.54;51.12
67249;SHT31;63247;54.300;18.592;2023-05-07T06:02:20;15.19;50.28
67249;SHT31;63247;54.300;18.592;2023-05-07T06:04:45;15.54;49.63
67249;SHT31;63247;54.300;18.592;2023-05-07T06:07:11;16.05;48.34
67249;SHT31;63247;54.300;18.592;2023-05-07T06:09:36;15.40;49.76
67249;SHT31;63247;54.300;18.592;2023-05-07T06:12:02;15.36;49.09
67249;SHT31;63247;54.300;18.592;2023-05-07T06:14:33;15.56;48.55
67249;SHT31;63247;54.300;18.592;2023-05-07T06:17:28;15.23;48.78
67249;SHT31;63247;54.300;18.592;2023-05-07T06:19:54;15.71;47.88
67249;SHT31;63247;54.300;18.592;2023-05-07T06:22:19;15.86;47.17
67249;SHT31;63247;54.300;18.592;2023-05-07T06:24:45;15.63;48.86
67249;SHT31;63247;54.300;18.592;2023-05-07T06:27:11;15.76;48.39
67249;SHT31;63247;54.300;18.592;2023-05-07T06:29:36;15.35;46.88
67249;SHT31;63247;54.300;18.592;2023-05-07T06:32:09;17.69;44.90
67249;SHT31;63247;54.300;18.592;2023-05-07T06:34:35;19.33;43.94
67249;SHT31;63247;54.300;18.592;2023-05-07T06:37:01;20.01;41.59
67249;SHT31;63247;54.300;18.592;2023-05-07T06:39:26;17.49;45.16
67249;SHT31;63247;54.300;18.592;2023-05-07T06:41:52;18.33;43.88
67249;SHT31;63247;54.300;18.592;2023-05-07T06:44:17;18.79;42.45
67249;SHT31;63247;54.300;18.592;2023-05-07T06:46:42;18.09;43.22
67249;SHT31;63247;54.300;18.592;2023-05-07T06:49:08;18.87;43.38
67249;SHT31;63247;54.300;18.592;2023-05-07T06:51:33;19.47;43.33
67249;SHT31;63247;54.300;18.592;2023-05-07T06:53:59;18.16;44.96
67249;SHT31;63247;54.300;18.592;2023-05-07T06:56:24;17.92;45.84
67249;SHT31;63247;54.300;18.592;2023-05-07T06:58:50;17.75;45.76
67249;SHT31;63247;54.300;18.592;2023-05-07T07:01:15;17.93;45.53
67249;SHT31;63247;54.300;18.592;2023-05-07T07:03:41;19.16;44.36
67249;SHT31;63247;54.300;18.592;2023-05-07T07:06:06;18.54;45.72
67249;SHT31;63247;54.300;18.592;2023-05-07T07:08:32;18.17;45.10
67249;SHT31;63247;54.300;18.592;2023-05-07T07:10:57;18.18;44.35
67249;SHT31;63247;54.300;18.592;2023-05-07T07:13:23;17.06;45.78
67249;SHT31;63247;54.300;18.592;2023-05-07T07:15:50;18.29;44.38
67249;SHT31;63247;54.300;18.592;2023-05-07T07:18:16;18.03;44.17
67249;SHT31;63247;54.300;18.592;2023-05-07T07:20:41;17.76;44.67
67249;SHT31;63247;54.300;18.592;2023-05-07T07:23:06;17.72;45.68
67249;SHT31;63247;54.300;18.592;2023-05-07T07:25:32;18.85;43.78
67249;SHT31;63247;54.300;18.592;2023-05-07T07:27:57;19.64;41.64
67249;SHT31;63247;54.300;18.592;2023-05-07T07:30:23;18.79;41.96
67249;SHT31;63247;54.300;18.592;2023-05-07T07:32:48;17.72;44.12
67249;SHT31;63247;54.300;18.592;2023-05-07T07:35:14;18.78;42.92
67249;SHT31;63247;54.300;18.592;2023-05-07T07:37:39;18.13;43.73
67249;SHT31;63247;54.300;18.592;2023-05-07T07:40:05;19.15;42.01
67249;SHT31;63247;54.300;18.592;2023-05-07T07:42:31;19.06;42.26
67249;SHT31;63247;54.300;18.592;2023-05-07T07:44:57;18.79;43.31
67249;SHT31;63247;54.300;18.592;2023-05-07T07:47:23;19.19;41.87
67249;SHT31;63247;54.300;18.592;2023-05-07T07:49:48;18.69;42.63
67249;SHT31;63247;54.300;18.592;2023-05-07T07:52:13;19.22;42.13
67249;SHT31;63247;54.300;18.592;2023-05-07T07:54:39;18.65;42.72
67249;SHT31;63247;54.300;18.592;2023-05-07T07:57:04;19.60;41.45
67249;SHT31;63247;54.300;18.592;2023-05-07T07:59:30;20.44;39.70
67249;SHT31;63247;54.300;18.592;2023-05-07T08:01:55;19.53;40.36
67249;SHT31;63247;54.300;18.592;2023-05-07T08:04:22;20.08;40.80
67249;SHT31;63247;54.300;18.592;2023-05-07T08:06:48;19.67;39.29
67249;SHT31;63247;54.300;18.592;2023-05-07T08:09:13;19.88;39.03
67249;SHT31;63247;54.300;18.592;2023-05-07T08:11:39;19.03;40.73
67249;SHT31;63247;54.300;18.592;2023-05-07T08:14:05;19.57;39.64
67249;SHT31;63247;54.300;18.592;2023-05-07T08:16:30;19.54;40.19
67249;SHT31;63247;54.300;18.592;2023-05-07T08:18:56;19.37;39.49
67249;SHT31;63247;54.300;18.592;2023-05-07T08:21:22;18.71;38.95
67249;SHT31;63247;54.300;18.592;2023-05-07T08:23:48;18.52;39.83
67249;SHT31;63247;54.300;18.592;2023-05-07T08:26:13;18.71;39.03
67249;SHT31;63247;54.300;18.592;2023-05-07T08:28:39;18.69;39.03
67249;SHT31;63247;54.300;18.592;2023-05-07T08:31:04;19.60;38.25
67249;SHT31;63247;54.300;18.592;2023-05-07T08:33:30;19.27;39.25
67249;SHT31;63247;54.300;18.592;2023-05-07T08:35:56;18.67;39.08
67249;SHT31;63247;54.300;18.592;2023-05-07T08:38:21;17.79;40.22
67249;SHT31;63247;54.300;18.592;2023-05-07T08:40:47;17.68;39.44
67249;SHT31;63247;54.300;18.592;2023-05-07T08:43:13;17.94;39.65
67249;SHT31;63247;54.300;18.592;2023-05-07T08:45:40;18.12;41.00
67249;SHT31;63247;54.300;18.592;2023-05-07T08:48:09;16.63;40.53
67249;SHT31;63247;54.300;18.592;2023-05-07T08:50:38;16.91;39.15
67249;SHT31;63247;54.300;18.592;2023-05-07T08:53:04;17.87;39.84
67249;SHT31;63247;54.300;18.592;2023-05-07T08:55:30;18.00;39.46
67249;SHT31;63247;54.300;18.592;2023-05-07T08:57:55;17.58;38.92
67249;SHT31;63247;54.300;18.592;2023-05-07T09:00:21;20.09;37.95
67249;SHT31;63247;54.300;18.592;2023-05-07T09:02:47;17.54;39.91
67249;SHT31;63247;54.300;18.592;2023-05-07T09:05:12;18.16;39.58
67249;SHT31;63247;54.300;18.592;2023-05-07T09:07:37;19.51;38.89
67249;SHT31;63247;54.300;18.592;2023-05-07T09:10:04;20.69;41.77
67249;SHT31;63247;54.300;18.592;2023-05-07T09:12:29;21.00;43.04
67249;SHT31;63247;54.300;18.592;2023-05-07T09:15:15;17.13;46.98
67249;SHT31;63247;54.300;18.592;2023-05-07T09:17:41;17.96;45.70
67249;SHT31;63247;54.300;18.592;2023-05-07T09:20:08;19.75;44.09
67249;SHT31;63247;54.300;18.592;2023-05-07T09:22:35;19.22;43.00
67249;SHT31;63247;54.300;18.592;2023-05-07T09:25:01;20.42;43.10
67249;SHT31;63247;54.300;18.592;2023-05-07T09:27:26;20.19;43.59
67249;SHT31;63247;54.300;18.592;2023-05-07T09:29:52;18.89;43.93
67249;SHT31;63247;54.300;18.592;2023-05-07T09:32:17;17.99;44.69
67249;SHT31;63247;54.300;18.592;2023-05-07T09:34:43;20.04;44.13
67249;SHT31;63247;54.300;18.592;2023-05-07T09:37:08;19.15;43.80
67249;SHT31;63247;54.300;18.592;2023-05-07T09:39:45;19.37;44.98
67249;SHT31;63247;54.300;18.592;2023-05-07T09:42:11;20.44;44.38
67249;SHT31;63247;54.300;18.592;2023-05-07T09:44:40;21.19;43.54
67249;SHT31;63247;54.300;18.592;2023-05-07T09:47:07;18.24;42.40
67249;SHT31;63247;54.300;18.592;2023-05-07T09:49:39;16.62;45.54
67249;SHT31;63247;54.300;18.592;2023-05-07T09:52:07;19.06;44.30
67249;SHT31;63247;54.300;18.592;2023-05-07T09:54:35;16.86;46.83
67249;SHT31;63247;54.300;18.592;2023-05-07T09:57:03;17.56;46.03
67249;SHT31;63247;54.300;18.592;2023-05-07T09:59:31;17.02;46.67
67249;SHT31;63247;54.300;18.592;2023-05-07T10:01:57;17.10;46.37
67249;SHT31;63247;54.300;18.592;2023-05-07T10:04:25;17.20;47.04
67249;SHT31;63247;54.300;18.592;2023-05-07T10:06:51;17.23;46.50
67249;SHT31;63247;54.300;18.592;2023-05-07T10:09:17;15.80;47.52
67249;SHT31;63247;54.300;18.592;2023-05-07T10:11:43;15.46;49.48
67249;SHT31;63247;54.300;18.592;2023-05-07T10:14:09;15.80;48.84
67249;SHT31;63247;54.300;18.592;2023-05-07T10:16:36;15.33;47.97
67249;SHT31;63247;54.300;18.592;2023-05-07T10:19:03;15.04;48.43
67249;SHT31;63247;54.300;18.592;2023-05-07T10:21:30;14.84;49.40
67249;SHT31;63247;54.300;18.592;2023-05-07T10:24:04;14.96;49.43
67249;SHT31;63247;54.300;18.592;2023-05-07T10:26:35;14.85;48.51
67249;SHT31;63247;54.300;18.592;2023-05-07T10:29:14;15.57;49.70
67249;SHT31;63247;54.300;18.592;2023-05-07T10:34:23;15.81;48.42
67249;SHT31;63247;54.300;18.592;2023-05-07T10:36:50;15.80;48.52
67249;SHT31;63247;54.300;18.592;2023-05-07T10:39:17;16.46;48.41
67249;SHT31;63247;54.300;18.592;2023-05-07T10:41:42;15.50;48.59
67249;SHT31;63247;54.300;18.592;2023-05-07T10:44:08;14.91;46.83
67249;SHT31;63247;54.300;18.592;2023-05-07T10:46:33;15.01;46.31
67249;SHT31;63247;54.300;18.592;2023-05-07T10:51:26;14.74;45.48
67249;SHT31;63247;54.300;18.592;2023-05-07T10:56:42;14.60;45.05
67249;SHT31;63247;54.300;18.592;2023-05-07T11:04:21;15.04;45.98
67249;SHT31;63247;54.300;18.592;2023-05-07T11:12:16;14.25;45.32
67249;SHT31;63247;54.300;18.592;2023-05-07T11:17:09;14.25;49.13
67249;SHT31;63247;54.300;18.592;2023-05-07T11:19:54;15.01;49.54
67249;SHT31;63247;54.300;18.592;2023-05-07T11:25:04;14.65;49.31
67249;SHT31;63247;54.300;18.592;2023-05-07T11:27:31;14.77;49.39
67249;SHT31;63247;54.300;18.592;2023-05-07T11:29:57;14.70;48.85
67249;SHT31;63247;54.300;18.592;2023-05-07T11:32:27;14.19;48.87
67249;SHT31;63247;54.300;18.592;2023-05-07T11:34:54;13.85;47.76
67249;SHT31;63247;54.300;18.592;2023-05-07T11:37:21;14.30;49.06
67249;SHT31;63247;54.300;18.592;2023-05-07T11:39:46;14.27;48.69
67249;SHT31;63247;54.300;18.592;2023-05-07T11:42:34;14.15;50.16
67249;SHT31;63247;54.300;18.592;2023-05-07T11:45:01;14.57;49.76
67249;SHT31;63247;54.300;18.592;2023-05-07T11:47:29;14.27;48.88
67249;SHT31;63247;54.300;18.592;2023-05-07T11:49:55;14.95;51.32
67249;SHT31;63247;54.300;18.592;2023-05-07T11:52:23;14.29;48.19
67249;SHT31;63247;54.300;18.592;2023-05-07T11:54:55;14.34;48.03
67249;SHT31;63247;54.300;18.592;2023-05-07T11:57:22;13.65;48.00
67249;SHT31;63247;54.300;18.592;2023-05-07T11:59:48;13.83;48.54
67249;SHT31;63247;54.300;18.592;2023-05-07T12:02:17;13.86;49.70
67249;SHT31;63247;54.300;18.592;2023-05-07T12:04:42;14.19;49.17
67249;SHT31;63247;54.300;18.592;2023-05-07T12:07:12;14.22;47.56
67249;SHT31;63247;54.300;18.592;2023-05-07T12:09:39;14.29;48.92
67249;SHT31;63247;54.300;18.592;2023-05-07T12:12:05;14.25;48.36
67249;SHT31;63247;54.300;18.592;2023-05-07T12:14:31;14.53;47.58
67249;SHT31;63247;54.300;18.592;2023-05-07T12:16:58;14.87;47.67
67249;SHT31;63247;54.300;18.592;2023-05-07T12:19:24;13.88;47.72
67249;SHT31;63247;54.300;18.592;2023-05-07T12:21:49;13.74;48.24
67249;SHT31;63247;54.300;18.592;2023-05-07T12:24:15;14.20;49.07
67249;SHT31;63247;54.300;18.592;2023-05-07T12:26:40;14.02;48.48
67249;SHT31;63247;54.300;18.592;2023-05-07T12:29:06;14.20;49.03
67249;SHT31;63247;54.300;18.592;2023-05-07T12:31:32;13.82;48.15
67249;SHT31;63247;54.300;18.592;2023-05-07T12:33:57;14.02;47.90
67249;SHT31;63247;54.300;18.592;2023-05-07T12:36:23;13.82;49.15
67249;SHT31;63247;54.300;18.592;2023-05-07T12:38:51;14.01;48.89
67249;SHT31;63247;54.300;18.592;2023-05-07T12:41:16;13.88;48.66
67249;SHT31;63247;54.300;18.592;2023-05-07T12:43:46;14.12;49.35
67249;SHT31;63247;54.300;18.592;2023-05-07T12:46:12;14.64;48.72
67249;SHT31;63247;54.300;18.592;2023-05-07T12:48:45;14.56;48.04
67249;SHT31;63247;54.300;18.592;2023-05-07T12:51:11;14.63;48.78
67249;SHT31;63247;54.300;18.592;2023-05-07T12:53:42;14.43;47.92
67249;SHT31;63247;54.300;18.592;2023-05-07T12:56:08;14.48;49.17
67249;SHT31;63247;54.300;18.592;2023-05-07T12:58:35;14.41;48.19
67249;SHT31;63247;54.300;18.592;2023-05-07T13:01:06;14.43;48.23
67249;SHT31;63247;54.300;18.592;2023-05-07T13:03:34;14.22;47.90
67249;SHT31;63247;54.300;18.592;2023-05-07T13:06:04;13.69;49.30
67249;SHT31;63247;54.300;18.592;2023-05-07T13:08:38;13.83;50.37
67249;SHT31;63247;54.300;18.592;2023-05-07T13:11:10;13.78;49.60
67249;SHT31;63247;54.300;18.592;2023-05-07T13:13:37;13.81;50.19
67249;SHT31;63247;54.300;18.592;2023-05-07T13:16:05;14.02;50.90
67249;SHT31;63247;54.300;18.592;2023-05-07T13:18:32;13.69;49.89
67249;SHT31;63247;54.300;18.592;2023-05-07T13:20:59;13.31;51.47
67249;SHT31;63247;54.300;18.592;2023-05-07T13:23:25;13.46;50.87
67249;SHT31;63247;54.300;18.592;2023-05-07T13:25:51;13.44;50.81
67249;SHT31;63247;54.300;18.592;2023-05-07T13:28:19;13.37;50.62
67249;SHT31;63247;54.300;18.592;2023-05-07T13:30:45;13.33;50.52
67249;SHT31;63247;54.300;18.592;2023-05-07T13:33:10;13.43;50.17
67249;SHT31;63247;54.300;18.592;2023-05-07T13:35:36;12.97;49.79
67249;SHT31;63247;54.300;18.592;2023-05-07T13:38:02;13.23;51.43
67249;SHT31;63247;54.300;18.592;2023-05-07T13:40:27;13.40;51.29
67249;SHT31;63247;54.300;18.592;2023-05-07T13:42:53;13.14;50.92
67249;SHT31;63247;54.300;18.592;2023-05-07T13:45:19;13.39;51.16
67249;SHT31;63247;54.300;18.592;2023-05-07T13:47:45;13.33;50.77
67249;SHT31;63247;54.300;18.592;2023-05-07T13:50:11;13.48;51.32
67249;SHT31;63247;54.300;18.592;2023-05-07T13:52:40;13.86;51.12
67249;SHT31;63247;54.300;18.592;2023-05-07T13:55:06;12.85;51.27
67249;SHT31;63247;54.300;18.592;2023-05-07T13:57:32;13.12;51.73
67249;SHT31;63247;54.300;18.592;2023-05-07T13:59:57;12.83;51.16
67249;SHT31;63247;54.300;18.592;2023-05-07T14:02:23;12.88;50.84
67249;SHT31;63247;54.300;18.592;2023-05-07T14:04:48;12.96;50.66
67249;SHT31;63247;54.300;18.592;2023-05-07T14:07:14;13.00;51.04
67249;SHT31;63247;54.300;18.592;2023-05-07T14:09:40;13.10;51.39
67249;SHT31;63247;54.300;18.592;2023-05-07T14:12:05;12.85;50.59
67249;SHT31;63247;54.300;18.592;2023-05-07T14:14:31;12.75;50.63
67249;SHT31;63247;54.300;18.592;2023-05-07T14:16:57;12.82;51.03
67249;SHT31;63247;54.300;18.592;2023-05-07T14:19:22;13.09;50.84
67249;SHT31;63247;54.300;18.592;2023-05-07T14:21:48;13.33;50.27
67249;SHT31;63247;54.300;18.592;2023-05-07T14:24:13;13.19;50.55
67249;SHT31;63247;54.300;18.592;2023-05-07T14:26:40;13.28;51.20
67249;SHT31;63247;54.300;18.592;2023-05-07T14:29:05;13.14;50.57
67249;SHT31;63247;54.300;18.592;2023-05-07T14:31:30;13.47;51.12
67249;SHT31;63247;54.300;18.592;2023-05-07T14:33:56;13.67;49.53
67249;SHT31;63247;54.300;18.592;2023-05-07T14:36:23;13.39;50.56
67249;SHT31;63247;54.300;18.592;2023-05-07T14:38:54;13.41;50.11
67249;SHT31;63247;54.300;18.592;2023-05-07T14:41:20;13.14;50.23
67249;SHT31;63247;54.300;18.592;2023-05-07T14:43:47;13.06;51.42
67249;SHT31;63247;54.300;18.592;2023-05-07T14:46:16;13.16;50.70
67249;SHT31;63247;54.300;18.592;2023-05-07T14:48:43;13.14;50.72
67249;SHT31;63247;54.300;18.592;2023-05-07T14:51:08;12.96;50.59
67249;SHT31;63247;54.300;18.592;2023-05-07T14:53:34;12.75;50.59
67249;SHT31;63247;54.300;18.592;2023-05-07T14:56:00;12.82;51.27
67249;SHT31;63247;54.300;18.592;2023-05-07T14:58:25;12.71;51.22
67249;SHT31;63247;54.300;18.592;2023-05-07T15:00:51;12.79;51.22
67249;SHT31;63247;54.300;18.592;2023-05-07T15:03:16;12.78;51.51
67249;SHT31;63247;54.300;18.592;2023-05-07T15:05:42;12.75;50.77
67249;SHT31;63247;54.300;18.592;2023-05-07T15:08:07;12.85;51.76
67249;SHT31;63247;54.300;18.592;2023-05-07T15:10:36;12.79;51.39
67249;SHT31;63247;54.300;18.592;2023-05-07T15:13:06;12.61;50.85
67249;SHT31;63247;54.300;18.592;2023-05-07T15:15:32;12.31;51.38
67249;SHT31;63247;54.300;18.592;2023-05-07T15:17:57;12.17;51.60
67249;SHT31;63247;54.300;18.592;2023-05-07T15:20:25;12.13;51.85
67249;SHT31;63247;54.300;18.592;2023-05-07T15:22:51;12.01;52.53
67249;SHT31;63247;54.300;18.592;2023-05-07T15:25:16;12.06;51.92
67249;SHT31;63247;54.300;18.592;2023-05-07T15:27:41;11.80;52.96
67249;SHT31;63247;54.300;18.592;2023-05-07T15:30:07;11.98;53.38
67249;SHT31;63247;54.300;18.592;2023-05-07T15:32:35;11.87;52.87
67249;SHT31;63247;54.300;18.592;2023-05-07T15:35:02;11.77;52.78
67249;SHT31;63247;54.300;18.592;2023-05-07T15:37:28;12.00;53.04
67249;SHT31;63247;54.300;18.592;2023-05-07T15:39:55;11.86;52.75